Time;durP1;ratioP1;P1;durP2;ratioP2;P2;SDS_P1;SDS_P2;PMS_P1;PMS_P2;Temp;Humidity;BMP_temperature;BMP_pressure;BME280_temperature;BME280_humidity;BME280_pressure;Samples;Min_cycle;Max_cycle;Signal;HPM_P1;HPM_P2
2021/07/30 00:01:57;;;;;;;;;;;16.70;51.20;;;;;;5033556;28;19916;-85
2021/07/30 00:04:22;;;;;;;;;;;16.80;51.30;;;;;;5060159;28;19920;-85
2021/07/30 00:06:48;;;;;;;;;;;16.80;51.40;;;;;;5059232;28;20004;-84
2021/07/30 00:09:16;;;;;;;;;;;16.80;51.40;;;;;;5055915;28;20376;-84
2021/07/30 00:11:42;;;;;;;;;;;16.80;51.50;;;;;;5046790;28;19916;-84
2021/07/30 00:14:08;;;;;;;;;;;16.80;51.60;;;;;;5039815;28;19912;-84
2021/07/30 00:16:34;;;;;;;;;;;16.80;51.70;;;;;;5052081;28;19925;-84
2021/07/30 00:19:02;;;;;;;;;;;16.80;51.80;;;;;;5053381;28;19916;-84
2021/07/30 00:21:28;;;;;;;;;;;16.80;51.90;;;;;;5053892;28;19927;-83
2021/07/30 00:23:56;;;;;;;;;;;16.80;52.00;;;;;;5027264;28;19980;-84
2021/07/30 00:26:24;;;;;;;;;;;16.80;52.10;;;;;;5038388;28;20007;-84
2021/07/30 00:28:50;;;;;;;;;;;16.80;52.20;;;;;;5053123;28;20007;-85
2021/07/30 00:31:18;;;;;;;;;;;16.80;52.30;;;;;;5063671;28;20380;-84
2021/07/30 00:33:46;;;;;;;;;;;16.80;52.30;;;;;;5064641;28;19912;-85
2021/07/30 00:36:12;;;;;;;;;;;16.80;52.30;;;;;;5040869;28;19974;-84
2021/07/30 00:38:37;;;;;;;;;;;16.80;52.40;;;;;;5049218;28;19917;-85
2021/07/30 00:41:03;;;;;;;;;;;16.80;52.50;;;;;;5047622;28;20062;-85
2021/07/30 00:43:28;;;;;;;;;;;16.90;52.70;;;;;;5028342;28;20012;-85
2021/07/30 00:45:55;;;;;;;;;;;16.80;52.70;;;;;;5063062;28;20414;-84
2021/07/30 00:48:21;;;;;;;;;;;16.80;52.80;;;;;;5059388;28;19951;-85
2021/07/30 00:50:47;;;;;;;;;;;16.80;52.90;;;;;;5044934;28;19913;-84
2021/07/30 00:53:13;;;;;;;;;;;16.80;53.00;;;;;;5042537;28;19909;-83
2021/07/30 00:55:39;;;;;;;;;;;16.80;53.20;;;;;;5051174;28;19912;-84
2021/07/30 00:58:05;;;;;;;;;;;16.80;53.30;;;;;;5057254;28;20399;-84
2021/07/30 01:00:30;;;;;;;;;;;16.80;53.40;;;;;;5054601;28;19920;-85
2021/07/30 01:02:58;;;;;;;;;;;16.80;53.50;;;;;;5044422;28;19959;-85
2021/07/30 01:05:26;;;;;;;;;;;16.80;53.70;;;;;;5056163;28;20000;-85
2021/07/30 01:07:52;;;;;;;;;;;16.80;53.80;;;;;;5048628;28;19916;-85
2021/07/30 01:10:17;;;;;;;;;;;16.80;54.00;;;;;;5063509;28;19920;-85
2021/07/30 01:12:44;;;;;;;;;;;16.80;54.10;;;;;;5062107;28;19912;-84
2021/07/30 01:15:09;;;;;;;;;;;16.70;54.10;;;;;;5044346;28;19980;-85
2021/07/30 01:17:35;;;;;;;;;;;16.70;54.30;;;;;;5056790;28;20014;-84
2021/07/30 01:20:00;;;;;;;;;;;16.60;54.40;;;;;;5059578;28;20003;-85
2021/07/30 01:22:29;;;;;;;;;;;16.60;54.60;;;;;;5061801;28;19927;-85
2021/07/30 01:24:55;;;;;;;;;;;16.60;54.70;;;;;;5042164;28;20210;-85
2021/07/30 01:27:21;;;;;;;;;;;16.50;54.90;;;;;;5058103;28;19913;-83
2021/07/30 01:29:47;;;;;;;;;;;16.50;55.10;;;;;;5053787;28;19913;-84
2021/07/30 01:32:13;;;;;;;;;;;16.40;55.20;;;;;;5037365;28;19920;-84
2021/07/30 01:34:39;;;;;;;;;;;16.30;55.40;;;;;;5061486;28;19909;-84
2021/07/30 01:37:05;;;;;;;;;;;16.30;55.50;;;;;;5035263;28;19913;-84
2021/07/30 01:39:30;;;;;;;;;;;16.20;55.60;;;;;;5057697;28;20309;-83
2021/07/30 01:41:56;;;;;;;;;;;16.20;55.70;;;;;;5029987;28;19916;-85
2021/07/30 01:44:21;;;;;;;;;;;16.20;55.90;;;;;;5041283;28;19917;-85
2021/07/30 01:46:47;;;;;;;;;;;16.10;55.90;;;;;;5041427;28;19913;-84
2021/07/30 01:49:13;;;;;;;;;;;16.10;56.10;;;;;;5041439;28;20388;-85
2021/07/30 01:51:38;;;;;;;;;;;16.00;56.20;;;;;;5057824;28;20046;-84
2021/07/30 01:54:06;;;;;;;;;;;16.00;56.40;;;;;;5059368;28;19917;-85
2021/07/30 01:56:32;;;;;;;;;;;15.90;56.40;;;;;;5060385;28;19909;-84
2021/07/30 01:58:57;;;;;;;;;;;15.90;56.60;;;;;;5056857;28;20028;-84
2021/07/30 02:01:22;;;;;;;;;;;15.90;56.80;;;;;;5058298;28;20126;-84
2021/07/30 02:03:48;;;;;;;;;;;15.80;56.80;;;;;;5059962;28;19975;-85
2021/07/30 02:06:13;;;;;;;;;;;15.80;57.00;;;;;;5032855;28;20293;-85
2021/07/30 02:08:39;;;;;;;;;;;15.80;57.10;;;;;;5053451;28;19913;-84
2021/07/30 02:11:09;;;;;;;;;;;15.70;57.10;;;;;;5042214;28;19913;-84
2021/07/30 02:16:18;;;;;;;;;;;15.70;57.40;;;;;;5042283;28;20052;-85
2021/07/30 02:18:44;;;;;;;;;;;15.60;57.50;;;;;;5053771;28;19944;-84
2021/07/30 02:21:09;;;;;;;;;;;15.60;57.60;;;;;;5042530;28;19913;-84
2021/07/30 02:23:35;;;;;;;;;;;15.60;57.80;;;;;;5042132;28;20438;-85
2021/07/30 02:26:00;;;;;;;;;;;15.50;57.90;;;;;;5059031;28;19928;-84
2021/07/30 02:28:26;;;;;;;;;;;15.50;58.00;;;;;;5053143;28;19913;-85
2021/07/30 02:30:51;;;;;;;;;;;15.50;58.20;;;;;;5047426;28;20022;-85
2021/07/30 02:33:16;;;;;;;;;;;15.50;58.30;;;;;;5059693;28;19995;-84
2021/07/30 02:35:42;;;;;;;;;;;15.40;58.40;;;;;;5061832;28;19909;-84
2021/07/30 02:38:07;;;;;;;;;;;15.40;58.50;;;;;;5057858;28;19923;-85
2021/07/30 02:40:34;;;;;;;;;;;15.40;59.20;;;;;;5060791;28;19948;-84
2021/07/30 02:43:00;;;;;;;;;;;15.40;58.80;;;;;;5054694;28;19920;-85
2021/07/30 02:45:25;;;;;;;;;;;15.40;58.90;;;;;;5024900;28;19917;-85
2021/07/30 02:47:51;;;;;;;;;;;15.30;59.00;;;;;;5033210;28;19920;-85
2021/07/30 02:50:16;;;;;;;;;;;15.30;59.10;;;;;;5052740;28;20011;-85
2021/07/30 02:52:42;;;;;;;;;;;15.30;59.20;;;;;;5040709;28;19913;-84
2021/07/30 02:55:07;;;;;;;;;;;15.20;59.30;;;;;;5057509;28;19956;-85
2021/07/30 02:57:33;;;;;;;;;;;15.20;59.50;;;;;;5060172;28;19964;-85
2021/07/30 02:59:58;;;;;;;;;;;15.20;59.70;;;;;;5059434;28;19944;-83
2021/07/30 03:02:24;;;;;;;;;;;15.20;59.90;;;;;;5040245;28;19935;-83
2021/07/30 03:04:49;;;;;;;;;;;15.20;60.00;;;;;;5059152;28;19917;-85
2021/07/30 03:07:15;;;;;;;;;;;15.10;60.20;;;;;;5059937;28;20300;-84
2021/07/30 03:09:40;;;;;;;;;;;15.10;60.50;;;;;;5060659;28;20066;-84
2021/07/30 03:12:06;;;;;;;;;;;15.10;60.80;;;;;;5060209;28;19996;-84
2021/07/30 03:14:31;;;;;;;;;;;15.10;61.10;;;;;;5059077;28;19913;-84
2021/07/30 03:16:57;;;;;;;;;;;15.00;61.40;;;;;;5041610;28;19917;-85
2021/07/30 03:19:22;;;;;;;;;;;15.00;61.80;;;;;;5059540;28;20367;-85
2021/07/30 03:21:48;;;;;;;;;;;15.00;62.20;;;;;;5040521;28;19913;-84
2021/07/30 03:24:13;;;;;;;;;;;15.00;62.50;;;;;;5057099;28;19916;-84
2021/07/30 03:26:38;;;;;;;;;;;15.00;62.90;;;;;;5037275;28;19952;-84
2021/07/30 03:29:04;;;;;;;;;;;14.90;63.20;;;;;;5047592;28;19919;-84
2021/07/30 03:31:30;;;;;;;;;;;14.90;63.60;;;;;;5059089;28;19917;-85
2021/07/30 03:33:55;;;;;;;;;;;14.90;63.90;;;;;;5040636;28;19931;-84
2021/07/30 03:36:21;;;;;;;;;;;14.90;64.40;;;;;;5059035;28;19912;-85
2021/07/30 03:38:46;;;;;;;;;;;14.80;64.70;;;;;;5054711;28;19919;-84
2021/07/30 03:41:12;;;;;;;;;;;14.80;65.20;;;;;;5056133;28;19921;-84
2021/07/30 03:43:37;;;;;;;;;;;14.80;65.60;;;;;;5052209;28;20003;-84
2021/07/30 03:46:03;;;;;;;;;;;14.80;66.10;;;;;;5043411;28;20004;-84
2021/07/30 03:48:28;;;;;;;;;;;14.80;66.60;;;;;;5062394;28;20337;-84
2021/07/30 03:50:54;;;;;;;;;;;14.70;67.10;;;;;;5029618;28;19909;-84
2021/07/30 03:53:19;;;;;;;;;;;14.70;67.60;;;;;;5051118;28;19909;-85
2021/07/30 03:55:45;;;;;;;;;;;14.70;68.20;;;;;;5048000;28;19944;-85
2021/07/30 03:58:10;;;;;;;;;;;14.70;68.80;;;;;;5054401;28;19920;-84
2021/07/30 04:00:37;;;;;;;;;;;14.80;69.50;;;;;;5030570;28;19912;-85
2021/07/30 04:03:02;;;;;;;;;;;14.80;70.10;;;;;;5061423;28;19915;-85
2021/07/30 04:05:28;;;;;;;;;;;14.80;70.70;;;;;;5059382;28;19905;-84
2021/07/30 04:07:53;;;;;;;;;;;14.80;71.30;;;;;;5047208;28;19913;-84
2021/07/30 04:10:19;;;;;;;;;;;14.70;71.80;;;;;;5060330;28;19916;-84
2021/07/30 04:12:44;;;;;;;;;;;14.80;72.50;;;;;;5061867;28;19912;-85
2021/07/30 04:15:10;;;;;;;;;;;14.80;73.30;;;;;;5061991;28;19915;-84
2021/07/30 04:17:35;;;;;;;;;;;14.70;73.80;;;;;;5039406;28;19909;-85
2021/07/30 04:20:01;;;;;;;;;;;14.70;75.00;;;;;;5045604;28;19941;-85
2021/07/30 04:22:26;;;;;;;;;;;14.70;75.80;;;;;;5056069;28;20359;-84
2021/07/30 04:24:52;;;;;;;;;;;14.80;76.80;;;;;;5060843;28;19909;-84
2021/07/30 04:27:17;;;;;;;;;;;14.80;77.70;;;;;;5045936;28;19917;-84
2021/07/30 04:29:43;;;;;;;;;;;14.80;78.90;;;;;;5031687;28;19913;-84
2021/07/30 04:32:09;;;;;;;;;;;14.90;79.80;;;;;;5051656;28;19916;-85
2021/07/30 04:34:35;;;;;;;;;;;14.90;80.60;;;;;;5062932;28;19909;-84
2021/07/30 04:37:01;;;;;;;;;;;15.00;81.40;;;;;;5059783;28;19913;-84
2021/07/30 04:39:26;;;;;;;;;;;15.10;82.00;;;;;;5043731;28;20308;-84
2021/07/30 04:41:52;;;;;;;;;;;15.20;82.60;;;;;;5048915;28;19917;-84
2021/07/30 04:44:18;;;;;;;;;;;15.30;83.10;;;;;;5051398;28;20007;-84
2021/07/30 04:46:43;;;;;;;;;;;15.40;83.60;;;;;;5047259;28;19924;-84
2021/07/30 04:49:09;;;;;;;;;;;15.40;84.00;;;;;;5040314;28;19920;-85
2021/07/30 04:51:34;;;;;;;;;;;15.50;84.60;;;;;;5054683;28;19917;-83
2021/07/30 04:53:59;;;;;;;;;;;15.60;84.90;;;;;;5062891;28;19905;-84
2021/07/30 04:56:25;;;;;;;;;;;15.70;85.40;;;;;;5051133;28;19917;-84
2021/07/30 04:58:51;;;;;;;;;;;15.80;86.00;;;;;;5045136;28;20262;-84
2021/07/30 05:01:16;;;;;;;;;;;15.80;86.60;;;;;;5061317;28;19912;-84
2021/07/30 05:03:42;;;;;;;;;;;15.90;87.40;;;;;;5062224;28;19915;-85
2021/07/30 05:06:14;;;;;;;;;;;16.00;88.20;;;;;;5041141;28;19952;-84
2021/07/30 05:08:40;;;;;;;;;;;16.00;88.60;;;;;;5057219;28;19921;-85
2021/07/30 05:11:05;;;;;;;;;;;16.20;89.30;;;;;;5056587;28;19919;-85
2021/07/30 05:13:31;;;;;;;;;;;16.30;89.70;;;;;;5056872;28;19909;-85
2021/07/30 05:15:58;;;;;;;;;;;16.30;90.10;;;;;;5055698;28;20416;-85
2021/07/30 05:18:23;;;;;;;;;;;16.40;90.50;;;;;;5056645;28;19943;-83
2021/07/30 05:20:49;;;;;;;;;;;16.40;90.70;;;;;;5052061;28;19913;-85
2021/07/30 05:23:14;;;;;;;;;;;16.60;90.80;;;;;;5058419;28;19920;-85
2021/07/30 05:25:40;;;;;;;;;;;16.70;90.80;;;;;;5022528;28;19968;-85
2021/07/30 05:28:05;;;;;;;;;;;17.00;90.80;;;;;;5052510;28;19920;-85
2021/07/30 05:30:31;;;;;;;;;;;17.30;90.60;;;;;;5054651;28;20446;-84
2021/07/30 05:32:56;;;;;;;;;;;17.70;90.00;;;;;;5053715;28;19917;-85
2021/07/30 05:35:22;;;;;;;;;;;18.00;88.30;;;;;;5039659;28;19913;-85
2021/07/30 05:37:47;;;;;;;;;;;18.40;86.60;;;;;;5036536;28;19924;-85
2021/07/30 05:40:13;;;;;;;;;;;18.60;85.60;;;;;;5025432;28;19963;-85
2021/07/30 05:42:38;;;;;;;;;;;18.80;84.70;;;;;;5035800;28;19952;-85
2021/07/30 05:45:04;;;;;;;;;;;18.90;84.10;;;;;;5036435;28;19917;-85
2021/07/30 05:47:29;;;;;;;;;;;19.10;83.60;;;;;;5043320;28;20353;-85
2021/07/30 05:49:55;;;;;;;;;;;19.40;83.50;;;;;;5057323;28;20857;-84
2021/07/30 05:52:20;;;;;;;;;;;20.00;82.30;;;;;;5056280;28;19966;-85
2021/07/30 05:54:46;;;;;;;;;;;21.10;79.30;;;;;;5053849;28;19913;-85
2021/07/30 05:57:11;;;;;;;;;;;23.90;72.70;;;;;;5035253;28;19913;-85
2021/07/30 05:59:37;;;;;;;;;;;26.60;60.10;;;;;;5053576;28;19923;-85
2021/07/30 06:02:02;;;;;;;;;;;29.00;55.70;;;;;;5042727;28;19912;-85
2021/07/30 06:04:28;;;;;;;;;;;29.70;52.30;;;;;;5054572;28;19963;-84
2021/07/30 06:06:53;;;;;;;;;;;30.20;52.10;;;;;;5055154;28;19971;-85
2021/07/30 06:09:19;;;;;;;;;;;31.00;51.00;;;;;;5034967;28;19912;-85
2021/07/30 06:11:45;;;;;;;;;;;32.00;49.70;;;;;;5052883;28;20316;-85
2021/07/30 06:14:10;;;;;;;;;;;31.90;49.00;;;;;;5052984;28;20380;-86
2021/07/30 06:16:38;;;;;;;;;;;32.90;48.70;;;;;;5053542;28;19913;-86
2021/07/30 06:19:04;;;;;;;;;;;33.00;47.50;;;;;;5046993;28;19928;-86
2021/07/30 06:21:32;;;;;;;;;;;34.40;47.80;;;;;;5043247;28;20000;-86
2021/07/30 06:24:00;;;;;;;;;;;35.20;46.20;;;;;;5019809;28;20282;-87
2021/07/30 06:26:25;;;;;;;;;;;35.50;45.40;;;;;;5034799;28;20013;-86
2021/07/30 06:28:51;;;;;;;;;;;36.60;44.10;;;;;;5034550;28;19945;-87
2021/07/30 06:31:16;;;;;;;;;;;37.70;42.90;;;;;;5025920;28;19917;-87
2021/07/30 06:33:42;;;;;;;;;;;38.30;41.80;;;;;;5051567;28;20035;-87
2021/07/30 06:36:07;;;;;;;;;;;39.40;41.30;;;;;;5050245;28;19935;-87
2021/07/30 06:38:33;;;;;;;;;;;40.70;39.70;;;;;;5038151;28;19921;-86
2021/07/30 06:40:58;;;;;;;;;;;40.90;39.00;;;;;;5047563;28;20297;-87
2021/07/30 06:43:24;;;;;;;;;;;40.90;38.70;;;;;;5048888;28;19920;-86
2021/07/30 06:45:49;;;;;;;;;;;40.00;39.30;;;;;;5049947;28;20011;-86
2021/07/30 06:48:17;;;;;;;;;;;39.60;39.80;;;;;;5045011;28;19913;-86
2021/07/30 06:50:43;;;;;;;;;;;42.60;38.20;;;;;;5048416;28;19912;-86
2021/07/30 06:53:09;;;;;;;;;;;44.00;35.60;;;;;;5052585;28;20372;-86
2021/07/30 06:55:34;;;;;;;;;;;43.00;37.00;;;;;;5039160;28;19912;-86
2021/07/30 06:58:00;;;;;;;;;;;43.30;35.50;;;;;;5041544;28;19923;-86
2021/07/30 07:00:25;;;;;;;;;;;41.20;36.80;;;;;;5044065;28;19916;-86
2021/07/30 07:02:51;;;;;;;;;;;39.20;38.50;;;;;;5049792;28;20553;-86
2021/07/30 07:05:18;;;;;;;;;;;37.50;39.80;;;;;;5050404;28;20020;-85
2021/07/30 07:07:44;;;;;;;;;;;35.80;41.00;;;;;;5051990;28;19978;-85
2021/07/30 07:10:09;;;;;;;;;;;34.80;42.20;;;;;;5032480;28;19948;-85
2021/07/30 07:12:36;;;;;;;;;;;35.90;42.10;;;;;;5051182;28;19987;-86
2021/07/30 07:15:02;;;;;;;;;;;37.20;40.00;;;;;;5051508;28;20288;-86
2021/07/30 07:17:27;;;;;;;;;;;37.70;39.30;;;;;;5052006;28;19971;-86
2021/07/30 07:19:53;;;;;;;;;;;39.90;38.20;;;;;;5051095;28;19917;-87
2021/07/30 07:22:18;;;;;;;;;;;42.40;36.60;;;;;;5051615;28;20416;-87
2021/07/30 07:24:44;;;;;;;;;;;44.50;35.00;;;;;;5051072;28;19959;-87
2021/07/30 07:27:10;;;;;;;;;;;45.60;34.10;;;;;;5034184;28;19913;-86
2021/07/30 07:29:35;;;;;;;;;;;44.20;33.80;;;;;;5054206;28;19909;-86
2021/07/30 07:32:01;;;;;;;;;;;42.00;35.10;;;;;;5031315;28;20388;-86
2021/07/30 07:34:26;;;;;;;;;;;40.40;36.60;;;;;;5035620;28;20305;-85
2021/07/30 07:36:52;;;;;;;;;;;40.30;37.00;;;;;;5049740;28;19920;-85
2021/07/30 07:39:18;;;;;;;;;;;41.90;36.10;;;;;;5051597;28;20525;-86
2021/07/30 07:41:43;;;;;;;;;;;43.80;33.80;;;;;;5038800;28;19932;-86
2021/07/30 07:44:09;;;;;;;;;;;45.70;32.90;;;;;;5041763;28;20391;-86
2021/07/30 07:46:35;;;;;;;;;;;48.40;31.30;;;;;;5055283;28;20065;-86
2021/07/30 07:49:00;;;;;;;;;;;48.90;30.10;;;;;;5055504;28;19912;-86
2021/07/30 07:51:26;;;;;;;;;;;49.50;30.00;;;;;;5053143;28;20415;-85
2021/07/30 07:53:51;;;;;;;;;;;48.10;30.00;;;;;;5054700;28;19916;-85
2021/07/30 07:56:17;;;;;;;;;;;45.20;31.90;;;;;;5050434;28;19959;-86
2021/07/30 07:58:43;;;;;;;;;;;46.00;32.40;;;;;;5054754;28;19992;-85
2021/07/30 08:01:12;;;;;;;;;;;45.50;31.40;;;;;;5051602;28;19912;-86
2021/07/30 08:03:38;;;;;;;;;;;46.90;31.40;;;;;;5055034;28;19919;-86
2021/07/30 08:06:03;;;;;;;;;;;49.00;29.50;;;;;;5062902;28;20011;-86
2021/07/30 08:08:29;;;;;;;;;;;50.10;29.10;;;;;;5045258;28;20372;-86
2021/07/30 08:10:54;;;;;;;;;;;51.50;28.50;;;;;;5043757;28;19959;-86
2021/07/30 08:13:19;;;;;;;;;;;51.80;27.60;;;;;;5043725;28;19962;-86
2021/07/30 08:15:45;;;;;;;;;;;52.00;27.50;;;;;;5049755;28;19920;-86
2021/07/30 08:18:10;;;;;;;;;;;52.40;27.40;;;;;;5053107;28;19920;-87
2021/07/30 08:20:36;;;;;;;;;;;52.90;27.20;;;;;;5052663;28;20481;-87
2021/07/30 08:23:02;;;;;;;;;;;53.20;27.10;;;;;;5048219;28;20270;-87
2021/07/30 08:25:27;;;;;;;;;;;53.30;26.90;;;;;;5047025;28;20300;-86
2021/07/30 08:27:53;;;;;;;;;;;53.60;26.70;;;;;;5021985;28;19923;-83
2021/07/30 08:30:18;;;;;;;;;;;53.90;26.70;;;;;;5028595;28;19913;-84
2021/07/30 08:32:43;;;;;;;;;;;53.70;26.20;;;;;;5036445;28;19958;-86
2021/07/30 08:35:09;;;;;;;;;;;52.60;26.50;;;;;;5017277;28;19913;-85
2021/07/30 08:37:35;;;;;;;;;;;52.30;26.60;;;;;;5054070;28;19916;-85
2021/07/30 08:40:00;;;;;;;;;;;52.30;26.50;;;;;;5053897;28;19935;-86
2021/07/30 08:42:27;;;;;;;;;;;51.80;26.40;;;;;;5044940;28;19913;-86
2021/07/30 08:44:52;;;;;;;;;;;51.10;26.50;;;;;;5047465;28;19924;-86
2021/07/30 08:47:19;;;;;;;;;;;50.90;26.70;;;;;;5038112;28;19921;-84
2021/07/30 08:49:45;;;;;;;;;;;51.40;26.40;;;;;;5032130;28;19920;-86
2021/07/30 08:52:11;;;;;;;;;;;51.90;26.00;;;;;;5032957;28;19920;-85
2021/07/30 08:54:37;;;;;;;;;;;51.90;25.80;;;;;;5047761;28;20504;-86
2021/07/30 08:57:23;;;;;;;;;;;51.30;25.70;;;;;;5039683;28;19996;-85
2021/07/30 08:59:48;;;;;;;;;;;49.10;27.10;;;;;;5046484;28;19920;-86
2021/07/30 09:02:14;;;;;;;;;;;47.60;28.00;;;;;;5049430;28;20393;-85
2021/07/30 09:04:39;;;;;;;;;;;45.60;28.20;;;;;;5047052;28;20019;-85
2021/07/30 09:07:05;;;;;;;;;;;43.30;29.20;;;;;;5035984;28;19912;-86
2021/07/30 09:09:31;;;;;;;;;;;41.30;30.10;;;;;;5048281;28;19924;-88
2021/07/30 09:11:58;;;;;;;;;;;41.90;30.30;;;;;;5053135;28;19919;-88
2021/07/30 09:14:38;;;;;;;;;;;41.10;30.00;;;;;;5033463;28;19923;-88
2021/07/30 09:17:04;;;;;;;;;;;40.60;30.20;;;;;;5049671;28;19956;-88
2021/07/30 09:19:29;;;;;;;;;;;39.90;30.20;;;;;;5049615;28;19921;-87
2021/07/30 09:22:01;;;;;;;;;;;39.00;31.10;;;;;;5043076;28;20300;-87
2021/07/30 09:24:31;;;;;;;;;;;38.10;31.50;;;;;;5047283;28;19917;-88
2021/07/30 09:26:59;;;;;;;;;;;38.80;31.60;;;;;;5050366;28;19913;-88
2021/07/30 09:29:28;;;;;;;;;;;41.50;29.80;;;;;;5034936;28;19916;-87
2021/07/30 09:31:58;;;;;;;;;;;43.10;28.60;;;;;;5037252;28;19936;-88
2021/07/30 09:34:38;;;;;;;;;;;43.80;28.50;;;;;;5035076;28;20281;-88
2021/07/30 09:37:05;;;;;;;;;;;44.60;28.00;;;;;;5047469;28;19913;-88
2021/07/30 09:39:33;;;;;;;;;;;43.60;28.40;;;;;;5051847;28;19913;-88
2021/07/30 09:42:01;;;;;;;;;;;42.60;28.90;;;;;;5034447;28;19908;-88
2021/07/30 09:44:34;;;;;;;;;;;42.80;29.30;;;;;;5035028;28;19917;-88
2021/07/30 09:47:02;;;;;;;;;;;44.40;28.50;;;;;;5036381;28;19913;-88
2021/07/30 09:49:34;;;;;;;;;;;45.50;27.90;;;;;;5032490;28;19913;-88
2021/07/30 09:52:00;;;;;;;;;;;44.70;27.70;;;;;;5049669;28;19959;-88
2021/07/30 09:54:26;;;;;;;;;;;45.20;28.00;;;;;;5046888;28;19935;-88
2021/07/30 09:56:51;;;;;;;;;;;43.70;28.10;;;;;;5053456;28;19913;-88
2021/07/30 09:59:16;;;;;;;;;;;44.40;28.20;;;;;;5053665;28;19908;-87
2021/07/30 10:01:42;;;;;;;;;;;44.10;27.90;;;;;;5050916;28;19974;-88
2021/07/30 10:04:08;;;;;;;;;;;44.60;28.20;;;;;;5039261;28;19921;-87
2021/07/30 10:06:33;;;;;;;;;;;43.00;28.30;;;;;;5035231;28;19909;-88
2021/07/30 10:08:59;;;;;;;;;;;41.30;28.90;;;;;;5046736;28;19961;-87
2021/07/30 10:11:24;;;;;;;;;;;40.90;29.20;;;;;;5047547;28;19921;-88
2021/07/30 10:13:50;;;;;;;;;;;41.30;29.20;;;;;;5044204;28;19940;-88
2021/07/30 10:16:16;;;;;;;;;;;42.50;28.70;;;;;;5050379;28;19913;-88
2021/07/30 10:18:42;;;;;;;;;;;43.30;28.20;;;;;;5052092;28;19916;-88
2021/07/30 10:21:08;;;;;;;;;;;44.10;28.10;;;;;;5039881;28;20291;-88
2021/07/30 10:23:38;;;;;;;;;;;44.60;27.90;;;;;;5035427;28;20627;-88
2021/07/30 10:26:04;;;;;;;;;;;45.10;27.60;;;;;;5046902;28;19940;-88
2021/07/30 10:28:32;;;;;;;;;;;44.50;27.50;;;;;;5053458;28;19920;-88
2021/07/30 10:30:58;;;;;;;;;;;44.60;27.50;;;;;;5031952;28;20369;-88
2021/07/30 10:33:30;;;;;;;;;;;44.70;27.80;;;;;;5032306;28;20297;-88
2021/07/30 10:35:57;;;;;;;;;;;45.30;27.30;;;;;;5047557;28;19915;-88
2021/07/30 10:38:24;;;;;;;;;;;44.10;27.30;;;;;;5034571;28;19916;-88
2021/07/30 10:40:55;;;;;;;;;;;43.90;27.50;;;;;;5032081;28;19909;-88
2021/07/30 10:43:21;;;;;;;;;;;44.70;27.20;;;;;;5035411;28;19913;-88
2021/07/30 10:46:08;;;;;;;;;;;45.10;26.80;;;;;;5046268;28;20003;-88
2021/07/30 10:48:34;;;;;;;;;;;44.40;26.90;;;;;;5044650;28;19917;-88
2021/07/30 10:51:01;;;;;;;;;;;45.40;26.80;;;;;;5048335;28;20395;-87
2021/07/30 10:53:38;;;;;;;;;;;44.00;26.80;;;;;;5051805;28;19928;-87
2021/07/30 10:56:05;;;;;;;;;;;43.40;27.20;;;;;;5038708;28;19931;-87
2021/07/30 10:58:39;;;;;;;;;;;42.00;27.90;;;;;;5052806;28;19948;-87
2021/07/30 11:01:05;;;;;;;;;;;40.40;28.40;;;;;;5041341;28;19913;-85
2021/07/30 11:03:49;;;;;;;;;;;41.10;28.00;;;;;;5052006;28;19913;-86
2021/07/30 11:06:24;;;;;;;;;;;40.10;28.40;;;;;;5033511;28;19920;-87
2021/07/30 11:09:02;;;;;;;;;;;39.60;29.10;;;;;;5036047;28;19917;-88
2021/07/30 11:11:39;;;;;;;;;;;41.20;28.20;;;;;;5052461;28;19909;-87
2021/07/30 11:14:15;;;;;;;;;;;39.50;28.50;;;;;;5051834;28;19913;-87
2021/07/30 11:16:41;;;;;;;;;;;38.20;29.10;;;;;;5052617;28;20296;-87
2021/07/30 11:19:07;;;;;;;;;;;39.20;29.50;;;;;;5051057;28;19916;-87
2021/07/30 11:21:33;;;;;;;;;;;40.70;28.50;;;;;;5052347;28;19933;-88
2021/07/30 11:23:58;;;;;;;;;;;41.90;28.00;;;;;;5052460;28;20196;-88
2021/07/30 11:26:24;;;;;;;;;;;42.50;27.70;;;;;;5033765;28;19920;-88
2021/07/30 11:28:54;;;;;;;;;;;43.10;27.50;;;;;;5052959;28;19913;-88
2021/07/30 11:31:20;;;;;;;;;;;43.70;27.40;;;;;;5051480;28;20393;-87
2021/07/30 11:33:45;;;;;;;;;;;43.90;27.00;;;;;;5052384;28;19908;-88
2021/07/30 11:36:11;;;;;;;;;;;43.30;26.80;;;;;;5053364;28;19971;-87
2021/07/30 11:38:46;;;;;;;;;;;42.80;27.30;;;;;;5039111;28;20415;-88
2021/07/30 11:41:14;;;;;;;;;;;43.10;27.30;;;;;;5052202;28;19908;-87
2021/07/30 11:43:58;;;;;;;;;;;42.70;26.70;;;;;;5051599;28;20297;-88
2021/07/30 11:46:24;;;;;;;;;;;42.50;26.80;;;;;;5053447;28;20379;-88
2021/07/30 11:48:50;;;;;;;;;;;41.90;26.70;;;;;;5051665;28;19936;-87
2021/07/30 11:51:15;;;;;;;;;;;40.70;27.00;;;;;;5053129;28;19909;-87
2021/07/30 11:53:42;;;;;;;;;;;40.40;27.50;;;;;;5034660;28;19909;-87
2021/07/30 11:56:10;;;;;;;;;;;39.60;27.60;;;;;;5052677;28;19954;-88
2021/07/30 11:58:35;;;;;;;;;;;40.40;27.70;;;;;;5052536;28;19963;-87
2021/07/30 12:01:10;;;;;;;;;;;40.10;27.30;;;;;;5051582;28;19920;-87
2021/07/30 12:03:35;;;;;;;;;;;39.30;27.70;;;;;;5052477;28;19909;-86
2021/07/30 12:06:01;;;;;;;;;;;39.70;28.10;;;;;;5051131;28;19939;-87
2021/07/30 12:08:27;;;;;;;;;;;38.70;28.10;;;;;;5050882;28;20058;-87
2021/07/30 12:10:53;;;;;;;;;;;38.60;28.20;;;;;;5052131;28;19966;-87
2021/07/30 12:13:21;;;;;;;;;;;38.70;28.50;;;;;;5052356;28;20387;-88
2021/07/30 12:15:47;;;;;;;;;;;39.40;28.10;;;;;;5051795;28;19913;-87
2021/07/30 12:18:13;;;;;;;;;;;38.70;27.90;;;;;;5035075;28;19919;-87
2021/07/30 12:20:39;;;;;;;;;;;38.10;28.30;;;;;;5052205;28;19909;-87
2021/07/30 12:23:05;;;;;;;;;;;38.60;28.30;;;;;;5046456;28;19921;-87
2021/07/30 12:25:34;;;;;;;;;;;38.60;28.10;;;;;;5026625;28;19919;-86
2021/07/30 12:28:04;;;;;;;;;;;39.20;27.80;;;;;;5047355;28;20004;-87
2021/07/30 12:30:30;;;;;;;;;;;39.80;27.60;;;;;;5035328;28;19909;-87
2021/07/30 12:32:55;;;;;;;;;;;40.30;27.30;;;;;;5046462;28;20418;-87
2021/07/30 12:35:34;;;;;;;;;;;39.70;27.40;;;;;;5074027;28;19959;-87
2021/07/30 12:38:02;;;;;;;;;;;39.10;27.70;;;;;;5055512;28;19912;-86
2021/07/30 12:40:27;;;;;;;;;;;39.10;27.80;;;;;;5044845;28;19958;-88
2021/07/30 12:43:11;;;;;;;;;;;38.70;28.00;;;;;;5019133;28;19913;-87
2021/07/30 12:45:37;;;;;;;;;;;37.60;28.30;;;;;;5054933;28;20510;-88
2021/07/30 12:48:03;;;;;;;;;;;36.50;28.80;;;;;;5052442;28;19917;-87
2021/07/30 12:50:30;;;;;;;;;;;35.80;29.20;;;;;;5055711;28;19931;-87
2021/07/30 12:53:04;;;;;;;;;;;35.50;29.40;;;;;;5036701;28;19909;-87
2021/07/30 12:55:30;;;;;;;;;;;35.20;29.50;;;;;;5035134;28;19920;-87
2021/07/30 12:57:55;;;;;;;;;;;35.00;29.70;;;;;;5020685;28;19909;-87
2021/07/30 13:00:33;;;;;;;;;;;34.90;29.70;;;;;;5038884;28;19971;-87
2021/07/30 13:02:58;;;;;;;;;;;34.50;29.90;;;;;;5055346;28;19947;-88
2021/07/30 13:05:30;;;;;;;;;;;33.90;30.10;;;;;;5035941;28;22225;-87
2021/07/30 13:07:57;;;;;;;;;;;33.40;30.40;;;;;;5052820;28;19920;-88
2021/07/30 13:10:23;;;;;;;;;;;32.80;31.00;;;;;;5054167;28;20410;-87
2021/07/30 13:12:49;;;;;;;;;;;32.20;31.30;;;;;;5039973;28;19909;-88
2021/07/30 13:15:14;;;;;;;;;;;31.70;31.70;;;;;;5055921;28;20292;-88
2021/07/30 13:17:40;;;;;;;;;;;31.40;32.70;;;;;;5054949;28;19913;-87
2021/07/30 13:20:06;;;;;;;;;;;31.00;32.40;;;;;;5055788;28;19909;-87
2021/07/30 13:22:31;;;;;;;;;;;30.70;32.60;;;;;;5034090;28;19928;-86
2021/07/30 13:24:57;;;;;;;;;;;30.40;32.90;;;;;;5047557;28;19920;-88
2021/07/30 13:27:22;;;;;;;;;;;30.20;33.20;;;;;;5049203;28;19923;-87
2021/07/30 13:29:47;;;;;;;;;;;29.90;33.40;;;;;;5051621;28;19970;-88
2021/07/30 13:32:13;;;;;;;;;;;29.70;33.60;;;;;;5036571;28;19909;-88
2021/07/30 13:34:38;;;;;;;;;;;29.40;33.80;;;;;;5045799;28;19916;-88
2021/07/30 13:37:04;;;;;;;;;;;29.20;34.10;;;;;;5018166;28;19915;-87
2021/07/30 13:39:29;;;;;;;;;;;29.00;34.30;;;;;;5055012;28;20607;-88
2021/07/30 13:41:56;;;;;;;;;;;28.70;34.60;;;;;;5025229;28;19917;-87
2021/07/30 13:44:21;;;;;;;;;;;28.60;34.90;;;;;;5049725;28;19917;-87
2021/07/30 13:46:47;;;;;;;;;;;28.50;35.00;;;;;;5039744;28;19920;-87
2021/07/30 13:49:12;;;;;;;;;;;28.40;35.80;;;;;;5034151;28;19917;-88
2021/07/30 13:51:37;;;;;;;;;;;28.40;35.30;;;;;;5045552;28;19917;-87
2021/07/30 13:54:03;;;;;;;;;;;28.30;35.40;;;;;;5054360;28;19909;-87
2021/07/30 13:56:29;;;;;;;;;;;28.30;35.60;;;;;;5052499;28;19913;-87
2021/07/30 13:58:54;;;;;;;;;;;28.30;35.70;;;;;;5055137;28;19909;-87
2021/07/30 14:01:20;;;;;;;;;;;28.30;36.40;;;;;;5049310;28;19913;-87
2021/07/30 14:03:46;;;;;;;;;;;28.60;35.80;;;;;;5015542;28;19939;-87
2021/07/30 14:06:11;;;;;;;;;;;29.30;35.40;;;;;;5023947;28;19948;-88
2021/07/30 14:08:36;;;;;;;;;;;29.50;35.20;;;;;;5057500;28;19920;-88
2021/07/30 14:11:02;;;;;;;;;;;29.70;35.20;;;;;;5053366;28;19917;-87
2021/07/30 14:13:27;;;;;;;;;;;29.80;35.20;;;;;;5052817;28;20373;-88
2021/07/30 14:15:53;;;;;;;;;;;30.00;35.20;;;;;;5051213;28;20273;-87